Time;durP1;ratioP1;P1;durP2;ratioP2;P2;SDS_P1;SDS_P2;PMS_P1;PMS_P2;Temp;Humidity;BMP_temperature;BMP_pressure;BME280_temperature;BME280_humidity;BME280_pressure;Samples;Min_cycle;Max_cycle;Signal;HPM_P1;HPM_P2
2023/05/13 00:00:32;;;;;;;9.93;9.02;;;12.70;99.90;;;;;;4978364;28;20718;-67
2023/05/13 00:02:58;;;;;;;14.05;9.23;;;12.70;99.90;;;;;;4978873;28;20122;-68
2023/05/13 00:05:24;;;;;;;10.60;8.73;;;12.60;99.90;;;;;;4978319;28;20050;-68
2023/05/13 00:07:49;;;;;;;11.73;8.77;;;12.60;99.90;;;;;;4979166;28;20061;-68
2023/05/13 00:10:15;;;;;;;10.65;8.88;;;12.70;99.90;;;;;;4950158;28;20042;-68
2023/05/13 00:12:41;;;;;;;10.13;8.90;;;12.60;99.90;;;;;;5000980;28;20627;-68
2023/05/13 00:15:08;;;;;;;11.52;9.23;;;12.60;99.90;;;;;;4946752;28;20050;-68
2023/05/13 00:17:33;;;;;;;13.38;9.13;;;12.60;99.90;;;;;;4977073;28;20042;-68
2023/05/13 00:19:59;;;;;;;12.85;9.70;;;12.60;99.90;;;;;;4973956;28;20107;-68
2023/05/13 00:22:25;;;;;;;14.77;8.60;;;12.60;99.90;;;;;;4979670;28;20554;-68
2023/05/13 00:24:51;;;;;;;10.48;9.18;;;12.50;99.90;;;;;;4970080;28;20058;-68
2023/05/13 00:27:17;;;;;;;12.57;9.32;;;12.50;99.90;;;;;;4964358;28;20035;-68
2023/05/13 00:29:42;;;;;;;10.45;9.02;;;12.40;99.90;;;;;;4948699;28;20061;-68
2023/05/13 00:32:08;;;;;;;9.75;8.75;;;12.40;99.90;;;;;;4969525;28;20081;-68
2023/05/13 00:34:34;;;;;;;11.77;9.50;;;12.40;99.90;;;;;;4964923;28;20057;-68
2023/05/13 00:36:59;;;;;;;10.00;9.00;;;12.40;99.90;;;;;;4950843;28;20115;-68
2023/05/13 00:39:26;;;;;;;12.07;9.85;;;12.40;99.90;;;;;;4968969;28;20059;-69
2023/05/13 00:41:51;;;;;;;10.85;9.25;;;12.40;99.90;;;;;;4986266;28;20068;-69
2023/05/13 00:44:17;;;;;;;10.32;9.23;;;12.30;99.90;;;;;;4974400;28;20098;-70
2023/05/13 00:46:43;;;;;;;11.63;9.82;;;12.30;99.90;;;;;;4962462;28;20059;-68
2023/05/13 00:49:09;;;;;;;11.87;9.47;;;12.30;99.90;;;;;;4964682;28;20046;-68
2023/05/13 00:51:35;;;;;;;12.13;9.77;;;12.30;99.90;;;;;;4961385;28;20057;-68
2023/05/13 00:54:01;;;;;;;10.97;9.47;;;12.30;99.90;;;;;;4973013;28;20054;-68
2023/05/13 00:56:27;;;;;;;10.80;9.60;;;12.30;99.90;;;;;;4986927;28;20502;-68
2023/05/13 00:58:52;;;;;;;12.00;10.37;;;12.30;99.90;;;;;;4948109;28;20042;-68
2023/05/13 01:01:41;;;;;;;12.53;10.67;;;12.30;99.90;;;;;;4977068;28;20057;-68
2023/05/13 01:04:33;;;;;;;13.53;10.40;;;12.30;99.90;;;;;;4952593;28;20446;-68
2023/05/13 01:07:18;;;;;;;13.20;9.83;;;12.20;99.90;;;;;;4964865;28;20098;-68
2023/05/13 01:10:25;;;;;;;10.83;9.73;;;12.10;99.90;;;;;;4972575;28;20057;-68
2023/05/13 01:12:59;;;;;;;11.50;9.97;;;12.00;99.90;;;;;;4906743;29;20048;-68
2023/05/13 01:15:26;;;;;;;12.43;10.93;;;12.00;99.90;;;;;;4968979;28;20066;-68
2023/05/13 01:18:19;;;;;;;12.17;10.03;;;12.00;99.90;;;;;;4969165;28;20094;-68
2023/05/13 01:20:45;;;;;;;11.53;10.07;;;12.00;99.90;;;;;;4975265;28;20050;-69
2023/05/13 01:23:11;;;;;;;14.00;10.90;;;11.90;99.90;;;;;;4981858;28;20086;-68
2023/05/13 01:25:39;;;;;;;11.10;9.73;;;11.90;99.90;;;;;;4987293;28;20038;-68
2023/05/13 01:28:06;;;;;;;13.13;10.00;;;11.80;99.90;;;;;;4987696;28;20064;-69
2023/05/13 01:30:32;;;;;;;11.83;10.07;;;11.80;99.90;;;;;;4963596;28;20158;-69
2023/05/13 01:32:59;;;;;;;12.27;11.07;;;11.80;99.90;;;;;;4978953;28;20101;-68
2023/05/13 01:35:27;;;;;;;12.63;10.50;;;11.70;99.90;;;;;;4976506;28;20050;-68
2023/05/13 01:37:55;;;;;;;11.47;10.23;;;11.80;99.90;;;;;;4971105;28;20057;-68
2023/05/13 01:40:22;;;;;;;15.53;10.77;;;11.70;99.90;;;;;;4973390;28;20095;-68
2023/05/13 01:42:47;;;;;;;13.23;11.07;;;11.70;99.90;;;;;;4981692;28;20050;-69
2023/05/13 01:45:13;;;;;;;12.13;10.33;;;11.70;99.90;;;;;;4984217;28;20046;-68
2023/05/13 01:47:39;;;;;;;16.17;10.57;;;11.70;99.90;;;;;;4988130;28;20045;-69
2023/05/13 01:50:05;;;;;;;14.13;10.83;;;11.70;99.90;;;;;;4989644;28;20090;-69
2023/05/13 01:52:31;;;;;;;13.83;11.33;;;11.70;99.90;;;;;;4961050;28;20058;-68
2023/05/13 01:54:58;;;;;;;14.10;11.10;;;11.60;99.90;;;;;;4990102;28;20066;-68
2023/05/13 01:57:25;;;;;;;15.87;12.10;;;11.60;99.90;;;;;;5008379;28;20048;-69
2023/05/13 01:59:51;;;;;;;14.20;11.60;;;11.60;99.90;;;;;;4994325;28;20100;-68
2023/05/13 02:02:17;;;;;;;15.13;11.50;;;11.60;99.90;;;;;;4952856;28;20077;-69
2023/05/13 02:04:43;;;;;;;13.07;11.67;;;11.60;99.90;;;;;;4962710;28;20061;-69
2023/05/13 02:07:09;;;;;;;15.53;11.53;;;11.60;99.90;;;;;;4987248;28;20038;-69
2023/05/13 02:09:34;;;;;;;13.97;11.87;;;11.50;99.90;;;;;;4985151;28;20042;-69
2023/05/13 02:12:00;;;;;;;12.90;11.60;;;11.50;99.90;;;;;;4984435;28;20050;-68
2023/05/13 02:14:26;;;;;;;17.03;12.43;;;11.50;99.90;;;;;;5012159;28;20041;-68
2023/05/13 02:16:52;;;;;;;15.57;11.77;;;11.40;99.90;;;;;;4981869;28;20148;-69
2023/05/13 02:19:18;;;;;;;13.77;12.13;;;11.40;99.90;;;;;;5009800;28;20117;-69
2023/05/13 02:21:45;;;;;;;13.70;12.30;;;11.40;99.90;;;;;;4962729;28;20050;-68
2023/05/13 02:24:11;;;;;;;16.30;12.63;;;11.40;99.90;;;;;;4988829;28;20059;-68
2023/05/13 02:26:37;;;;;;;14.03;12.30;;;11.30;99.90;;;;;;4963919;28;20046;-68
2023/05/13 02:29:02;;;;;;;17.13;13.43;;;11.30;99.90;;;;;;4949673;28;20053;-68
2023/05/13 02:31:28;;;;;;;17.17;12.33;;;11.30;99.90;;;;;;4970848;28;20050;-68
2023/05/13 02:33:54;;;;;;;15.53;13.20;;;11.30;99.90;;;;;;4968119;28;20495;-68
2023/05/13 02:36:19;;;;;;;14.50;13.00;;;11.20;99.90;;;;;;4974976;28;20082;-68
2023/05/13 02:38:45;;;;;;;18.80;12.87;;;11.20;99.90;;;;;;4990235;28;20559;-68
2023/05/13 02:41:11;;;;;;;16.47;13.17;;;11.20;99.90;;;;;;4957755;28;20112;-68
2023/05/13 02:43:37;;;;;;;15.33;13.67;;;11.20;99.90;;;;;;4946104;28;20047;-69
2023/05/13 02:46:02;;;;;;;15.23;12.93;;;11.10;99.90;;;;;;4944822;28;20081;-68
2023/05/13 02:48:28;;;;;;;16.50;13.57;;;11.10;99.90;;;;;;4972040;28;20042;-68
2023/05/13 02:50:54;;;;;;;15.27;13.60;;;11.10;99.90;;;;;;4976433;28;20045;-68
2023/05/13 02:53:20;;;;;;;15.70;14.10;;;11.10;99.90;;;;;;4973282;28;20042;-68
2023/05/13 02:55:45;;;;;;;17.63;14.63;;;11.00;99.90;;;;;;4972403;28;20446;-69
2023/05/13 02:58:12;;;;;;;16.27;13.63;;;11.00;99.90;;;;;;4937492;28;20053;-69
2023/05/13 03:00:37;;;;;;;16.27;14.40;;;11.00;99.90;;;;;;4967835;28;20531;-69
2023/05/13 03:03:03;;;;;;;16.40;14.43;;;11.00;99.90;;;;;;4976531;28;20346;-69
2023/05/13 03:05:29;;;;;;;15.90;14.13;;;10.90;99.90;;;;;;4959653;28;20053;-69
2023/05/13 03:07:56;;;;;;;18.37;14.33;;;10.90;99.90;;;;;;4981342;28;20125;-69
2023/05/13 03:10:22;;;;;;;18.03;14.23;;;10.90;99.90;;;;;;4934896;28;20403;-69
2023/05/13 03:12:48;;;;;;;15.63;14.00;;;10.90;99.90;;;;;;4952281;28;20289;-69
2023/05/13 03:15:15;;;;;;;16.00;14.17;;;10.80;99.90;;;;;;4987203;28;20125;-69
2023/05/13 03:17:41;;;;;;;21.93;15.00;;;10.80;99.90;;;;;;4964349;28;20051;-69
2023/05/13 03:20:07;;;;;;;16.80;14.97;;;10.80;99.90;;;;;;4946088;28;20057;-69
2023/05/13 03:22:33;;;;;;;17.60;14.13;;;10.70;99.90;;;;;;4994947;28;20058;-69
2023/05/13 03:24:58;;;;;;;18.17;15.23;;;10.70;99.90;;;;;;4947580;28;20054;-69
2023/05/13 03:27:24;;;;;;;18.67;14.83;;;10.70;99.90;;;;;;4978257;28;20089;-69
2023/05/13 03:29:50;;;;;;;17.90;14.67;;;10.70;99.90;;;;;;4978265;28;20381;-69
2023/05/13 03:32:15;;;;;;;17.70;15.70;;;10.70;99.90;;;;;;4978594;28;20054;-68
2023/05/13 03:34:41;;;;;;;20.53;16.00;;;10.70;99.90;;;;;;4962860;28;20113;-69
2023/05/13 03:37:08;;;;;;;22.73;16.37;;;10.70;99.90;;;;;;4978522;28;20034;-69
2023/05/13 03:39:35;;;;;;;17.80;15.90;;;10.70;99.90;;;;;;4978491;28;20056;-69
2023/05/13 03:42:01;;;;;;;20.83;16.90;;;10.70;99.90;;;;;;4979608;28;20054;-69
2023/05/13 03:44:27;;;;;;;20.13;17.30;;;10.70;99.90;;;;;;5008929;28;20039;-70
2023/05/13 03:46:53;;;;;;;22.73;18.77;;;10.70;99.90;;;;;;4975614;28;20054;-69
2023/05/13 03:49:18;;;;;;;20.70;18.47;;;10.70;99.90;;;;;;4973872;28;20049;-69
2023/05/13 03:51:44;;;;;;;23.47;18.87;;;10.70;99.90;;;;;;4946847;28;20408;-69
2023/05/13 03:54:10;;;;;;;23.87;18.77;;;10.70;99.90;;;;;;4980854;28;20384;-69
2023/05/13 03:56:35;;;;;;;24.90;20.33;;;10.70;99.90;;;;;;4970688;28;20073;-69
2023/05/13 03:59:01;;;;;;;25.10;20.47;;;10.70;99.90;;;;;;4978921;28;20046;-68
2023/05/13 04:01:26;;;;;;;23.87;20.30;;;10.80;99.90;;;;;;4962436;28;20046;-69
2023/05/13 04:03:52;;;;;;;23.93;20.10;;;10.80;99.90;;;;;;4978840;28;20616;-69
2023/05/13 04:06:18;;;;;;;26.17;20.07;;;10.80;99.90;;;;;;4978282;28;20062;-69
2023/05/13 04:08:44;;;;;;;24.97;20.10;;;10.80;99.90;;;;;;5004115;28;20038;-69
2023/05/13 04:11:09;;;;;;;23.40;19.53;;;10.70;99.90;;;;;;4947912;28;20099;-69
2023/05/13 04:13:35;;;;;;;22.60;18.77;;;10.70;99.90;;;;;;4977829;28;20038;-70
2023/05/13 04:16:01;;;;;;;22.17;18.90;;;10.70;99.90;;;;;;4979130;28;20409;-69
2023/05/13 04:18:32;;;;;;;24.60;18.67;;;10.70;99.90;;;;;;4974346;28;20057;-69
2023/05/13 04:20:57;;;;;;;23.30;19.10;;;10.60;99.90;;;;;;4978544;28;20498;-69
2023/05/13 04:23:23;;;;;;;23.40;18.80;;;10.60;99.90;;;;;;5004279;28;20054;-69
2023/05/13 04:25:52;;;;;;;23.50;18.63;;;10.60;99.90;;;;;;4978571;28;20042;-69
2023/05/13 04:28:19;;;;;;;24.10;19.17;;;10.60;99.90;;;;;;4979903;28;20056;-69
2023/05/13 04:30:45;;;;;;;24.07;19.37;;;10.50;99.90;;;;;;4994241;28;20116;-69
2023/05/13 04:33:10;;;;;;;22.67;17.93;;;10.50;99.90;;;;;;4978874;28;20038;-69
2023/05/13 04:35:36;;;;;;;23.80;18.73;;;10.50;99.90;;;;;;4962194;28;20047;-69
2023/05/13 04:38:03;;;;;;;23.13;20.10;;;10.40;99.90;;;;;;4963480;28;20047;-69
2023/05/13 04:40:29;;;;;;;22.90;19.13;;;10.40;99.90;;;;;;4988608;28;20034;-69
2023/05/13 04:42:55;;;;;;;24.50;18.80;;;10.40;99.90;;;;;;4976779;28;20053;-69
2023/05/13 04:45:21;;;;;;;22.30;19.43;;;10.40;99.90;;;;;;4961598;28;20562;-69
2023/05/13 04:47:47;;;;;;;21.27;18.33;;;10.40;99.90;;;;;;4977131;28;20121;-69
2023/05/13 04:50:13;;;;;;;24.00;18.83;;;10.40;99.90;;;;;;4978121;28;20050;-68
2023/05/13 04:52:41;;;;;;;24.13;19.00;;;10.40;99.90;;;;;;4959866;28;20166;-68
2023/05/13 04:55:08;;;;;;;24.00;18.93;;;10.40;99.90;;;;;;4973823;28;20054;-68
2023/05/13 04:57:34;;;;;;;28.00;19.23;;;10.50;99.90;;;;;;4996363;28;20678;-68
2023/05/13 05:00:00;;;;;;;21.87;18.43;;;10.50;99.90;;;;;;4958505;28;20059;-69
2023/05/13 05:02:28;;;;;;;24.57;18.50;;;10.50;99.90;;;;;;4956136;28;20061;-69
2023/05/13 05:04:54;;;;;;;25.37;19.97;;;10.50;99.90;;;;;;4962139;28;20057;-69
2023/05/13 05:07:20;;;;;;;23.20;19.50;;;10.50;99.90;;;;;;4954174;28;20070;-69
2023/05/13 05:09:46;;;;;;;23.60;19.43;;;10.60;99.90;;;;;;4961133;28;20049;-69
2023/05/13 05:12:12;;;;;;;20.83;18.10;;;10.70;99.90;;;;;;4978252;28;20112;-69
2023/05/13 05:14:38;;;;;;;21.37;18.57;;;10.70;99.90;;;;;;4979714;28;20541;-69
2023/05/13 05:17:04;;;;;;;26.83;19.17;;;10.80;99.90;;;;;;4977312;28;20057;-69
2023/05/13 05:19:29;;;;;;;22.53;18.03;;;10.80;99.90;;;;;;4978796;28;20049;-69
2023/05/13 05:21:55;;;;;;;23.67;18.43;;;10.90;99.90;;;;;;4958416;28;20055;-69
2023/05/13 05:24:21;;;;;;;22.67;18.57;;;11.00;99.90;;;;;;4977887;28;20069;-69
2023/05/13 05:26:47;;;;;;;22.43;18.17;;;11.00;99.90;;;;;;4987956;28;20039;-69
2023/05/13 05:29:12;;;;;;;23.07;18.43;;;11.10;99.90;;;;;;4976939;28;20046;-69
2023/05/13 05:31:38;;;;;;;23.20;19.07;;;11.20;99.90;;;;;;4976967;28;20141;-69
2023/05/13 05:34:04;;;;;;;20.53;17.63;;;11.30;99.90;;;;;;5002031;28;20046;-69
2023/05/13 05:36:30;;;;;;;22.33;18.40;;;11.30;99.90;;;;;;4977138;28;20045;-69
2023/05/13 05:38:55;;;;;;;20.60;18.00;;;11.40;99.90;;;;;;4976603;28;20084;-69
2023/05/13 05:41:21;;;;;;;23.10;17.67;;;11.50;99.90;;;;;;4943807;28;20101;-69
2023/05/13 05:43:47;;;;;;;19.47;17.40;;;11.60;99.90;;;;;;5003219;28;20489;-69
2023/05/13 05:46:13;;;;;;;21.13;17.00;;;11.70;99.90;;;;;;4998100;28;20049;-69
2023/05/13 05:48:39;;;;;;;20.33;17.13;;;11.70;99.90;;;;;;4994126;28;20046;-69
2023/05/13 05:51:05;;;;;;;28.10;18.40;;;11.70;99.90;;;;;;4976534;28;20203;-69
2023/05/13 05:53:31;;;;;;;21.10;17.60;;;11.80;99.90;;;;;;4976855;28;20100;-69
2023/05/13 05:55:56;;;;;;;21.70;17.53;;;11.70;99.90;;;;;;4969384;28;20583;-69
2023/05/13 05:58:22;;;;;;;22.70;17.93;;;11.80;99.90;;;;;;4976239;28;20038;-69
2023/05/13 06:00:48;;;;;;;20.23;17.70;;;11.80;99.90;;;;;;4976175;28;20050;-69
2023/05/13 06:03:14;;;;;;;21.50;18.07;;;11.80;99.90;;;;;;4974547;28;20054;-69
2023/05/13 06:05:39;;;;;;;19.60;17.03;;;11.90;99.90;;;;;;4976183;28;20046;-69
2023/05/13 06:08:05;;;;;;;20.37;17.90;;;11.80;99.90;;;;;;4960837;28;20489;-79
2023/05/13 06:10:31;;;;;;;20.10;17.43;;;12.00;99.90;;;;;;4940874;28;20109;-70
2023/05/13 06:12:57;;;;;;;22.43;17.57;;;12.10;99.90;;;;;;4975200;28;20049;-70
2023/05/13 06:15:22;;;;;;;22.23;17.20;;;12.20;99.90;;;;;;4975327;28;20050;-69
2023/05/13 06:17:48;;;;;;;20.50;16.13;;;12.40;99.90;;;;;;4942277;28;20070;-70
2023/05/13 06:20:14;;;;;;;18.87;16.30;;;12.70;99.90;;;;;;4945659;28;20046;-69
2023/05/13 06:22:40;;;;;;;19.17;16.57;;;12.90;99.90;;;;;;4993125;28;20046;-69
2023/05/13 06:25:06;;;;;;;18.65;16.00;;;13.20;99.90;;;;;;4975194;28;20056;-69
2023/05/13 06:27:32;;;;;;;17.50;15.70;;;13.30;99.90;;;;;;4959617;28;20136;-68
2023/05/13 06:29:59;;;;;;;19.50;16.02;;;13.50;99.90;;;;;;4975968;28;20053;-68
2023/05/13 06:32:25;;;;;;;17.63;15.82;;;13.50;99.90;;;;;;4955735;28;20081;-67
2023/05/13 06:34:51;;;;;;;17.85;15.50;;;13.70;99.90;;;;;;4990871;28;20038;-67
2023/05/13 06:37:17;;;;;;;20.15;16.33;;;13.80;99.90;;;;;;4975621;28;20446;-67
2023/05/13 06:39:42;;;;;;;17.65;14.60;;;13.90;99.90;;;;;;4975709;28;20038;-68
2023/05/13 06:42:08;;;;;;;19.15;15.82;;;13.90;99.90;;;;;;4975385;28;20053;-68
2023/05/13 06:44:34;;;;;;;17.05;14.60;;;14.10;99.90;;;;;;4974826;28;20042;-68
2023/05/13 06:47:01;;;;;;;18.48;15.57;;;14.10;99.90;;;;;;4975192;28;20611;-68
2023/05/13 06:49:27;;;;;;;17.60;15.30;;;14.10;99.90;;;;;;4975584;28;20120;-68
2023/05/13 06:51:53;;;;;;;18.30;16.20;;;14.10;99.90;;;;;;4955243;28;20510;-68
2023/05/13 06:54:18;;;;;;;16.90;15.10;;;14.10;99.90;;;;;;4998874;28;20069;-69
2023/05/13 06:56:44;;;;;;;17.55;15.75;;;14.30;99.90;;;;;;4981121;28;20054;-68
2023/05/13 06:59:10;;;;;;;17.13;15.35;;;14.30;99.90;;;;;;4976003;28;20691;-68
2023/05/13 07:01:36;;;;;;;18.30;16.27;;;14.40;99.90;;;;;;4982270;28;20084;-68
2023/05/13 07:04:02;;;;;;;21.90;16.60;;;14.50;99.90;;;;;;4982503;28;20042;-69
2023/05/13 07:06:28;;;;;;;18.10;16.20;;;14.60;99.90;;;;;;4983643;28;20081;-67
2023/05/13 07:08:54;;;;;;;20.08;15.98;;;14.60;99.90;;;;;;4981539;28;20490;-68
2023/05/13 07:11:20;;;;;;;18.83;15.00;;;14.70;99.90;;;;;;4981042;28;20057;-68
2023/05/13 07:13:46;;;;;;;18.17;16.27;;;14.70;99.90;;;;;;4998806;28;20050;-68
2023/05/13 07:16:12;;;;;;;16.35;14.65;;;14.80;99.90;;;;;;4982373;28;20093;-67
2023/05/13 07:18:38;;;;;;;17.05;14.93;;;14.90;99.90;;;;;;4981070;28;20120;-68
2023/05/13 07:21:05;;;;;;;20.00;15.98;;;14.90;99.90;;;;;;4981480;28;20042;-69
2023/05/13 07:23:31;;;;;;;22.65;15.77;;;15.00;99.90;;;;;;4998583;28;20436;-67
2023/05/13 07:25:57;;;;;;;16.27;14.57;;;15.10;99.90;;;;;;4999242;28;20437;-68
2023/05/13 07:28:22;;;;;;;17.17;15.35;;;15.30;99.90;;;;;;4981641;28;20042;-67
2023/05/13 07:30:48;;;;;;;16.52;14.85;;;15.30;99.90;;;;;;4999075;28;20038;-68
2023/05/13 07:33:14;;;;;;;16.70;15.00;;;15.50;99.90;;;;;;4999994;28;20058;-68
2023/05/13 07:35:40;;;;;;;18.35;16.48;;;15.50;99.90;;;;;;5010092;28;20061;-68
2023/05/13 07:38:08;;;;;;;19.05;15.95;;;15.70;99.90;;;;;;4999701;28;20494;-68
2023/05/13 07:40:34;;;;;;;16.42;14.82;;;15.80;99.90;;;;;;4969840;28;20050;-68
2023/05/13 07:43:00;;;;;;;20.60;14.88;;;15.90;99.90;;;;;;4982618;28;20141;-69
2023/05/13 07:45:26;;;;;;;16.25;14.57;;;16.00;99.90;;;;;;4966713;28;20046;-68
2023/05/13 07:47:52;;;;;;;17.45;15.38;;;16.10;99.90;;;;;;4981518;28;20053;-69
2023/05/13 07:50:18;;;;;;;16.52;14.77;;;16.10;99.90;;;;;;4982489;28;20050;-69
2023/05/13 07:52:47;;;;;;;20.67;14.07;;;16.10;99.90;;;;;;4982277;28;20050;-69
2023/05/13 07:55:14;;;;;;;20.58;15.57;;;16.20;99.90;;;;;;5005962;28;20050;-69
2023/05/13 07:57:40;;;;;;;18.23;14.90;;;16.20;99.90;;;;;;4998604;28;20046;-69
2023/05/13 08:00:06;;;;;;;16.30;13.88;;;16.30;99.90;;;;;;4981424;28;20048;-69
2023/05/13 08:02:33;;;;;;;15.48;13.85;;;16.50;99.90;;;;;;5002399;28;20046;-69
2023/05/13 08:05:00;;;;;;;16.42;14.70;;;16.60;99.90;;;;;;4991079;28;20511;-69
2023/05/13 08:07:25;;;;;;;16.33;14.63;;;16.70;99.90;;;;;;5003388;28;20060;-69
2023/05/13 08:09:51;;;;;;;16.30;13.18;;;16.80;99.90;;;;;;4964122;28;20549;-69
2023/05/13 08:12:17;;;;;;;16.27;14.23;;;16.90;99.90;;;;;;4964164;28;20093;-69
2023/05/13 08:14:42;;;;;;;16.48;14.40;;;17.10;99.90;;;;;;4970960;28;20198;-69
2023/05/13 08:17:08;;;;;;;18.25;15.68;;;17.10;99.90;;;;;;4976772;28;20038;-69
2023/05/13 08:19:35;;;;;;;17.40;15.50;;;17.10;99.90;;;;;;4959631;28;20055;-68
2023/05/13 08:22:01;;;;;;;17.55;14.43;;;17.20;99.90;;;;;;5000034;28;20074;-69
2023/05/13 08:24:26;;;;;;;16.15;13.75;;;17.20;99.90;;;;;;4978206;28;20054;-69
2023/05/13 08:26:52;;;;;;;15.18;13.60;;;17.20;99.90;;;;;;4980781;28;20045;-69
2023/05/13 08:29:18;;;;;;;13.75;11.90;;;17.40;99.90;;;;;;4946056;28;20709;-69
2023/05/13 08:31:43;;;;;;;15.73;12.13;;;17.40;99.90;;;;;;4965075;28;20049;-70
2023/05/13 08:34:09;;;;;;;13.60;12.20;;;17.50;99.90;;;;;;5009437;28;20063;-69
2023/05/13 08:36:35;;;;;;;12.23;10.77;;;17.50;99.90;;;;;;4996863;28;20074;-69
2023/05/13 08:39:01;;;;;;;14.23;10.68;;;17.60;99.90;;;;;;4971503;28;20472;-68
2023/05/13 08:41:28;;;;;;;11.20;10.00;;;17.80;99.90;;;;;;4979284;28;20447;-69
2023/05/13 08:43:56;;;;;;;12.95;9.57;;;17.80;99.90;;;;;;4961945;28;20057;-68
2023/05/13 08:46:26;;;;;;;11.60;9.32;;;17.90;99.90;;;;;;4978152;28;20054;-69
2023/05/13 08:48:53;;;;;;;14.25;10.15;;;18.00;99.90;;;;;;5006004;28;20058;-68
2023/05/13 08:51:19;;;;;;;10.50;9.40;;;18.20;99.90;;;;;;4977901;28;20468;-69
2023/05/13 08:53:46;;;;;;;14.25;8.70;;;18.20;99.90;;;;;;4994969;28;20259;-69
2023/05/13 08:56:12;;;;;;;10.07;8.68;;;18.30;99.90;;;;;;4960749;28;20046;-69
2023/05/13 08:58:38;;;;;;;9.38;8.40;;;18.50;99.90;;;;;;4995995;28;20101;-69
2023/05/13 09:01:05;;;;;;;13.18;8.90;;;18.60;99.90;;;;;;4995141;28;20045;-69
2023/05/13 09:03:31;;;;;;;10.88;7.35;;;18.70;99.90;;;;;;4977163;28;20041;-68
2023/05/13 09:06:00;;;;;;;9.40;7.72;;;18.80;99.90;;;;;;4994570;28;20070;-69
2023/05/13 09:08:26;;;;;;;9.35;7.53;;;18.90;99.90;;;;;;4977146;28;20140;-69
2023/05/13 09:10:52;;;;;;;7.90;7.10;;;19.00;99.90;;;;;;4960529;28;20137;-69
2023/05/13 09:13:18;;;;;;;8.63;6.82;;;19.10;99.90;;;;;;4976243;28;20073;-69
2023/05/13 09:15:44;;;;;;;9.48;7.20;;;19.20;99.90;;;;;;4989882;28;20042;-69
2023/05/13 09:18:10;;;;;;;9.98;7.25;;;19.30;99.90;;;;;;4944180;28;20050;-69
2023/05/13 09:20:36;;;;;;;9.77;7.00;;;19.30;99.90;;;;;;4977411;28;20042;-70
2023/05/13 09:23:04;;;;;;;8.18;6.22;;;19.40;99.90;;;;;;4960675;28;20522;-69
2023/05/13 09:25:30;;;;;;;9.05;8.15;;;19.50;99.90;;;;;;4976830;28;20042;-69
2023/05/13 09:27:58;;;;;;;9.13;7.72;;;19.50;99.90;;;;;;4977032;28;20064;-69
2023/05/13 09:30:28;;;;;;;10.35;6.75;;;19.60;99.90;;;;;;4994428;28;20066;-69
2023/05/13 09:33:05;;;;;;;10.38;7.50;;;19.60;99.90;;;;;;5000455;28;20044;-69
2023/05/13 09:35:32;;;;;;;9.90;7.25;;;19.70;99.90;;;;;;5002146;28;20069;-68
2023/05/13 09:37:58;;;;;;;10.57;7.40;;;19.80;99.90;;;;;;4958040;28;20050;-69
2023/05/13 09:40:24;;;;;;;9.00;8.02;;;19.90;99.90;;;;;;5004225;28;20057;-68
2023/05/13 09:42:49;;;;;;;10.80;7.10;;;20.10;99.90;;;;;;4999849;28;20050;-68
2023/05/13 09:45:16;;;;;;;11.48;8.07;;;20.10;99.90;;;;;;4976850;28;20042;-69
2023/05/13 09:47:42;;;;;;;8.40;7.28;;;20.20;99.90;;;;;;4976351;28;20619;-69
2023/05/13 09:50:10;;;;;;;8.38;6.30;;;20.40;99.90;;;;;;4976843;28;20121;-69
2023/05/13 09:52:37;;;;;;;11.13;7.75;;;20.40;99.90;;;;;;4960465;28;20042;-68
2023/05/13 09:55:07;;;;;;;8.05;6.20;;;20.30;99.30;;;;;;4976347;28;20050;-69
2023/05/13 09:57:33;;;;;;;6.93;6.20;;;20.40;95.40;;;;;;4993618;28;20455;-69
2023/05/13 10:00:08;;;;;;;9.00;6.60;;;20.50;95.30;;;;;;4994339;28;20058;-68
2023/05/13 10:02:34;;;;;;;8.93;7.53;;;20.70;99.80;;;;;;4993228;28;20054;-68
2023/05/13 10:05:01;;;;;;;9.68;6.95;;;20.90;99.90;;;;;;4943120;28;20053;-68
2023/05/13 10:07:27;;;;;;;7.63;6.03;;;21.00;99.90;;;;;;4976353;28;20038;-68
2023/05/13 10:09:57;;;;;;;9.35;5.75;;;21.10;99.20;;;;;;4993288;28;20034;-69
2023/05/13 10:12:27;;;;;;;7.65;5.53;;;21.20;90.00;;;;;;4975122;28;20081;-69
2023/05/13 10:14:54;;;;;;;7.90;5.90;;;21.20;88.40;;;;;;4975791;28;20054;-68
2023/05/13 10:17:24;;;;;;;7.65;5.22;;;21.30;88.90;;;;;;4983205;28;20050;-69
2023/05/13 10:19:52;;;;;;;11.55;5.60;;;21.20;79.70;;;;;;4994418;28;20038;-69
2023/05/13 10:22:31;;;;;;;6.88;5.72;;;21.20;80.00;;;;;;4975603;28;20057;-68
2023/05/13 10:24:58;;;;;;;6.57;5.88;;;21.10;75.70;;;;;;4969666;28;20050;-68
2023/05/13 10:27:28;;;;;;;6.43;5.80;;;21.00;75.30;;;;;;4993358;28;20049;-69
2023/05/13 10:29:56;;;;;;;7.63;5.90;;;21.10;75.90;;;;;;4993050;28;20102;-68
2023/05/13 10:32:27;;;;;;;6.40;5.65;;;21.20;77.00;;;;;;4975048;28;20519;-68
2023/05/13 10:34:59;;;;;;;9.13;6.00;;;21.30;78.20;;;;;;4975758;28;20056;-69
2023/05/13 10:37:55;;;;;;;11.35;6.40;;;21.40;76.90;;;;;;4976458;28;20662;-69
2023/05/13 10:40:59;;;;;;;6.70;6.07;;;21.50;77.50;;;;;;4975625;28;20042;-69
2023/05/13 10:43:29;;;;;;;9.43;5.72;;;21.50;76.00;;;;;;4993363;28;20407;-68
2023/05/13 10:46:04;;;;;;;8.55;5.10;;;21.60;79.00;;;;;;5003104;28;20053;-68
2023/05/13 10:48:58;;;;;;;6.63;5.63;;;21.70;77.60;;;;;;4980033;28;20042;-68
2023/05/13 10:51:25;;;;;;;9.38;6.65;;;21.80;75.80;;;;;;4984082;28;20050;-68
2023/05/13 10:53:51;;;;;;;7.25;5.53;;;21.70;78.40;;;;;;4978204;28;20042;-68
2023/05/13 10:56:23;;;;;;;7.68;5.78;;;21.70;76.10;;;;;;4993903;28;20046;-69
2023/05/13 10:59:03;;;;;;;6.07;5.45;;;21.80;75.50;;;;;;4975477;28;20054;-69
2023/05/13 11:01:33;;;;;;;8.05;5.03;;;21.90;75.80;;;;;;4956836;28;20039;-68
2023/05/13 11:04:01;;;;;;;8.88;6.15;;;22.00;76.50;;;;;;4993535;28;20038;-69
2023/05/13 11:06:35;;;;;;;7.95;5.65;;;22.00;75.70;;;;;;4976143;28;20042;-68
2023/05/13 11:09:05;;;;;;;6.18;5.70;;;21.90;73.70;;;;;;4996211;28;20050;-68
2023/05/13 11:11:33;;;;;;;7.00;5.28;;;22.00;76.10;;;;;;4994038;28;20042;-69
2023/05/13 11:14:12;;;;;;;7.38;5.40;;;22.00;76.70;;;;;;4974567;28;20038;-68
2023/05/13 11:16:43;;;;;;;9.50;5.10;;;22.10;73.00;;;;;;4992683;28;20119;-69
2023/05/13 11:19:22;;;;;;;5.60;4.35;;;22.30;76.00;;;;;;4993615;28;20102;-69
2023/05/13 11:21:53;;;;;;;5.45;4.28;;;22.50;72.90;;;;;;4975965;28;20110;-67
2023/05/13 11:24:20;;;;;;;8.82;4.32;;;22.50;68.40;;;;;;4994568;28;20060;-69
2023/05/13 11:26:57;;;;;;;5.97;5.00;;;22.40;67.30;;;;;;4992570;28;20072;-68
2023/05/13 11:29:36;;;;;;;6.65;4.50;;;22.30;66.10;;;;;;4975613;28;20052;-68
2023/05/13 11:32:05;;;;;;;7.00;4.80;;;22.40;67.90;;;;;;4974910;28;20042;-69
2023/05/13 11:34:32;;;;;;;5.95;4.82;;;22.40;67.90;;;;;;4959239;28;20065;-68
2023/05/13 11:37:08;;;;;;;5.68;4.72;;;22.40;66.90;;;;;;4997519;28;20043;-69
2023/05/13 11:39:34;;;;;;;7.90;4.82;;;22.50;66.20;;;;;;4973692;28;20114;-69
2023/05/13 11:42:05;;;;;;;6.13;4.70;;;22.60;66.00;;;;;;4978093;28;20095;-69
2023/05/13 11:44:33;;;;;;;5.30;4.15;;;22.70;64.70;;;;;;4978513;28;20058;-68
2023/05/13 11:47:01;;;;;;;6.03;4.28;;;22.80;65.70;;;;;;4978577;28;20050;-69
2023/05/13 11:49:45;;;;;;;7.35;4.30;;;23.00;63.70;;;;;;4999020;28;20057;-69
2023/05/13 11:52:17;;;;;;;6.47;4.22;;;22.80;59.40;;;;;;4996367;28;20069;-68
2023/05/13 11:54:49;;;;;;;5.47;3.95;;;22.40;62.00;;;;;;5007239;28;20388;-69
2023/05/13 11:57:26;;;;;;;6.13;5.40;;;22.10;64.10;;;;;;4999214;28;20047;-68
2023/05/13 11:59:57;;;;;;;6.80;4.50;;;22.20;64.10;;;;;;4996946;28;20046;-68
2023/05/13 12:02:44;;;;;;;4.72;4.32;;;22.50;64.90;;;;;;4978795;28;20058;-68
2023/05/13 12:05:11;;;;;;;8.55;4.30;;;22.60;62.20;;;;;;4979750;28;20034;-70
2023/05/13 12:07:38;;;;;;;5.78;4.30;;;22.50;61.10;;;;;;4992928;28;20078;-68
2023/05/13 12:10:05;;;;;;;6.55;4.30;;;22.40;60.10;;;;;;4975981;28;20058;-68
2023/05/13 12:12:34;;;;;;;8.63;4.10;;;22.70;59.80;;;;;;4996244;28;20034;-69
2023/05/13 12:15:02;;;;;;;5.63;4.05;;;22.90;59.60;;;;;;4995987;28;20201;-69
2023/05/13 12:17:30;;;;;;;6.13;3.85;;;22.70;58.90;;;;;;4995893;28;20125;-69
2023/05/13 12:20:11;;;;;;;5.68;4.22;;;22.30;57.40;;;;;;4996815;28;20112;-69
2023/05/13 12:22:59;;;;;;;6.82;3.80;;;22.10;56.40;;;;;;4971663;28;20312;-69
2023/05/13 12:25:50;;;;;;;5.00;3.55;;;22.30;57.70;;;;;;4977808;28;20061;-69
2023/05/13 12:28:15;;;;;;;4.82;3.85;;;22.70;58.40;;;;;;4954844;28;20059;-69
2023/05/13 12:30:59;;;;;;;6.22;4.72;;;22.90;58.80;;;;;;4977343;28;20429;-69
2023/05/13 12:33:51;;;;;;;11.88;4.55;;;23.20;57.10;;;;;;4962077;28;20125;-68
2023/05/13 12:36:22;;;;;;;5.28;4.30;;;23.20;59.20;;;;;;4972008;28;20069;-69